sensor_id;sensor_type;location;lat;lon;timestamp;P1;durP1;ratioP1;P2;durP2;ratioP2
69305;SDS011;56427;51.580;4.656;2022-12-16T00:01:14;66.55;;;32.17;;
69305;SDS011;56427;51.580;4.656;2022-12-16T00:03:40;60.13;;;31.87;;
69305;SDS011;56427;51.580;4.656;2022-12-16T00:06:10;65.47;;;31.30;;
69305;SDS011;56427;51.580;4.656;2022-12-16T00:08:37;62.10;;;31.87;;
69305;SDS011;56427;51.580;4.656;2022-12-16T00:11:03;58.92;;;30.48;;
69305;SDS011;56427;51.580;4.656;2022-12-16T00:13:30;57.05;;;29.15;;
69305;SDS011;56427;51.580;4.656;2022-12-16T00:15:56;62.20;;;30.60;;
69305;SDS011;56427;51.580;4.656;2022-12-16T00:18:22;59.53;;;29.93;;
69305;SDS011;56427;51.580;4.656;2022-12-16T00:20:49;59.00;;;29.52;;
69305;SDS011;56427;51.580;4.656;2022-12-16T00:23:19;60.85;;;31.08;;
69305;SDS011;56427;51.580;4.656;2022-12-16T00:25:44;57.77;;;31.07;;
69305;SDS011;56427;51.580;4.656;2022-12-16T00:28:11;60.03;;;33.25;;
69305;SDS011;56427;51.580;4.656;2022-12-16T00:30:37;75.75;;;33.58;;
69305;SDS011;56427;51.580;4.656;2022-12-16T00:33:03;61.95;;;31.50;;
69305;SDS011;56427;51.580;4.656;2022-12-16T00:35:29;71.28;;;33.35;;
69305;SDS011;56427;51.580;4.656;2022-12-16T00:37:55;64.90;;;30.02;;
69305;SDS011;56427;51.580;4.656;2022-12-16T00:40:21;58.08;;;28.55;;
69305;SDS011;56427;51.580;4.656;2022-12-16T00:42:46;55.78;;;28.48;;
69305;SDS011;56427;51.580;4.656;2022-12-16T00:45:12;58.37;;;27.33;;
69305;SDS011;56427;51.580;4.656;2022-12-16T00:47:37;61.43;;;28.37;;
69305;SDS011;56427;51.580;4.656;2022-12-16T00:50:02;59.17;;;27.57;;
69305;SDS011;56427;51.580;4.656;2022-12-16T00:52:28;52.17;;;25.63;;
69305;SDS011;56427;51.580;4.656;2022-12-16T00:54:53;50.60;;;25.27;;
69305;SDS011;56427;51.580;4.656;2022-12-16T00:57:19;45.30;;;23.90;;
69305;SDS011;56427;51.580;4.656;2022-12-16T00:59:44;41.63;;;22.87;;
69305;SDS011;56427;51.580;4.656;2022-12-16T01:02:09;43.57;;;21.90;;
69305;SDS011;56427;51.580;4.656;2022-12-16T01:04:35;42.23;;;21.80;;
69305;SDS011;56427;51.580;4.656;2022-12-16T01:07:00;32.80;;;17.20;;
69305;SDS011;56427;51.580;4.656;2022-12-16T01:09:25;24.13;;;13.13;;
69305;SDS011;56427;51.580;4.656;2022-12-16T01:11:51;29.97;;;15.60;;
69305;SDS011;56427;51.580;4.656;2022-12-16T01:14:16;28.73;;;15.13;;
69305;SDS011;56427;51.580;4.656;2022-12-16T01:16:41;34.88;;;16.02;;
69305;SDS011;56427;51.580;4.656;2022-12-16T01:19:06;28.67;;;14.17;;
69305;SDS011;56427;51.580;4.656;2022-12-16T01:21:32;34.90;;;15.77;;
69305;SDS011;56427;51.580;4.656;2022-12-16T01:23:58;28.67;;;15.40;;
69305;SDS011;56427;51.580;4.656;2022-12-16T01:26:24;27.98;;;11.13;;
69305;SDS011;56427;51.580;4.656;2022-12-16T01:28:49;23.47;;;11.73;;
69305;SDS011;56427;51.580;4.656;2022-12-16T01:31:15;25.70;;;11.63;;
69305;SDS011;56427;51.580;4.656;2022-12-16T01:33:42;28.57;;;13.17;;
69305;SDS011;56427;51.580;4.656;2022-12-16T01:36:08;35.00;;;15.88;;
69305;SDS011;56427;51.580;4.656;2022-12-16T01:38:34;28.50;;;13.48;;
69305;SDS011;56427;51.580;4.656;2022-12-16T01:41:00;33.60;;;15.50;;
69305;SDS011;56427;51.580;4.656;2022-12-16T01:43:27;41.83;;;17.87;;
69305;SDS011;56427;51.580;4.656;2022-12-16T01:48:43;32.50;;;17.35;;
69305;SDS011;56427;51.580;4.656;2022-12-16T01:51:17;29.15;;;15.35;;
69305;SDS011;56427;51.580;4.656;2022-12-16T01:53:46;38.33;;;17.53;;
69305;SDS011;56427;51.580;4.656;2022-12-16T01:56:14;34.40;;;16.60;;
69305;SDS011;56427;51.580;4.656;2022-12-16T01:58:41;32.35;;;15.93;;
69305;SDS011;56427;51.580;4.656;2022-12-16T02:01:08;29.70;;;15.95;;
69305;SDS011;56427;51.580;4.656;2022-12-16T02:03:34;29.90;;;15.07;;
69305;SDS011;56427;51.580;4.656;2022-12-16T02:06:01;30.48;;;15.02;;
69305;SDS011;56427;51.580;4.656;2022-12-16T02:08:27;27.98;;;15.93;;
69305;SDS011;56427;51.580;4.656;2022-12-16T02:11:00;26.27;;;15.47;;
69305;SDS011;56427;51.580;4.656;2022-12-16T02:16:26;17.13;;;11.02;;
69305;SDS011;56427;51.580;4.656;2022-12-16T02:27:52;22.85;;;12.90;;
69305;SDS011;56427;51.580;4.656;2022-12-16T02:44:05;24.30;;;12.38;;
69305;SDS011;56427;51.580;4.656;2022-12-16T02:46:32;17.95;;;11.57;;
69305;SDS011;56427;51.580;4.656;2022-12-16T02:51:38;17.52;;;10.50;;
69305;SDS011;56427;51.580;4.656;2022-12-16T02:54:05;19.25;;;10.82;;
69305;SDS011;56427;51.580;4.656;2022-12-16T02:56:49;19.98;;;10.73;;
69305;SDS011;56427;51.580;4.656;2022-12-16T02:59:43;18.50;;;11.03;;
69305;SDS011;56427;51.580;4.656;2022-12-16T03:04:43;15.75;;;9.25;;
69305;SDS011;56427;51.580;4.656;2022-12-16T03:07:13;17.17;;;10.10;;
69305;SDS011;56427;51.580;4.656;2022-12-16T03:09:42;20.73;;;10.50;;
69305;SDS011;56427;51.580;4.656;2022-12-16T03:12:11;20.57;;;10.93;;
69305;SDS011;56427;51.580;4.656;2022-12-16T03:14:40;17.08;;;10.50;;
69305;SDS011;56427;51.580;4.656;2022-12-16T03:17:07;16.88;;;10.07;;
69305;SDS011;56427;51.580;4.656;2022-12-16T03:19:35;18.77;;;10.05;;
69305;SDS011;56427;51.580;4.656;2022-12-16T03:22:05;19.15;;;9.80;;
69305;SDS011;56427;51.580;4.656;2022-12-16T03:24:36;16.33;;;8.87;;
69305;SDS011;56427;51.580;4.656;2022-12-16T03:32:05;16.27;;;9.55;;
69305;SDS011;56427;51.580;4.656;2022-12-16T03:37:08;15.73;;;9.40;;
69305;SDS011;56427;51.580;4.656;2022-12-16T03:39:46;16.00;;;9.73;;
69305;SDS011;56427;51.580;4.656;2022-12-16T03:42:14;19.77;;;10.88;;
69305;SDS011;56427;51.580;4.656;2022-12-16T03:44:41;16.65;;;10.77;;
69305;SDS011;56427;51.580;4.656;2022-12-16T03:47:07;13.63;;;8.30;;
69305;SDS011;56427;51.580;4.656;2022-12-16T03:49:33;20.27;;;10.77;;
69305;SDS011;56427;51.580;4.656;2022-12-16T03:51:58;21.37;;;11.23;;
69305;SDS011;56427;51.580;4.656;2022-12-16T03:54:24;15.13;;;9.57;;
69305;SDS011;56427;51.580;4.656;2022-12-16T03:56:50;16.60;;;9.60;;
69305;SDS011;56427;51.580;4.656;2022-12-16T03:59:15;17.73;;;10.87;;
69305;SDS011;56427;51.580;4.656;2022-12-16T04:01:40;14.47;;;9.47;;
69305;SDS011;56427;51.580;4.656;2022-12-16T04:04:06;17.65;;;11.00;;
69305;SDS011;56427;51.580;4.656;2022-12-16T04:06:31;15.02;;;8.77;;
69305;SDS011;56427;51.580;4.656;2022-12-16T04:08:57;17.83;;;9.47;;
69305;SDS011;56427;51.580;4.656;2022-12-16T04:11:22;14.40;;;9.67;;
69305;SDS011;56427;51.580;4.656;2022-12-16T04:14:07;15.70;;;8.80;;
69305;SDS011;56427;51.580;4.656;2022-12-16T04:16:51;18.53;;;9.40;;
69305;SDS011;56427;51.580;4.656;2022-12-16T04:19:36;10.82;;;7.43;;
69305;SDS011;56427;51.580;4.656;2022-12-16T04:22:25;12.40;;;6.85;;
69305;SDS011;56427;51.580;4.656;2022-12-16T04:25:13;11.07;;;6.45;;
69305;SDS011;56427;51.580;4.656;2022-12-16T04:27:41;14.90;;;6.40;;
69305;SDS011;56427;51.580;4.656;2022-12-16T04:30:11;22.13;;;5.67;;
69305;SDS011;56427;51.580;4.656;2022-12-16T04:32:44;8.93;;;4.63;;
69305;SDS011;56427;51.580;4.656;2022-12-16T04:35:39;9.43;;;4.00;;
69305;SDS011;56427;51.580;4.656;2022-12-16T04:38:23;11.85;;;4.10;;
69305;SDS011;56427;51.580;4.656;2022-12-16T04:41:07;8.57;;;3.13;;
69305;SDS011;56427;51.580;4.656;2022-12-16T04:43:51;8.30;;;3.07;;
69305;SDS011;56427;51.580;4.656;2022-12-16T04:46:35;9.13;;;2.83;;
69305;SDS011;56427;51.580;4.656;2022-12-16T04:49:19;15.32;;;3.45;;
69305;SDS011;56427;51.580;4.656;2022-12-16T04:52:03;11.80;;;2.85;;
69305;SDS011;56427;51.580;4.656;2022-12-16T04:54:47;5.97;;;2.67;;
69305;SDS011;56427;51.580;4.656;2022-12-16T04:57:31;5.77;;;2.27;;
69305;SDS011;56427;51.580;4.656;2022-12-16T05:00:15;9.60;;;2.55;;
69305;SDS011;56427;51.580;4.656;2022-12-16T05:02:59;8.10;;;2.35;;
69305;SDS011;56427;51.580;4.656;2022-12-16T05:05:43;12.40;;;3.55;;
69305;SDS011;56427;51.580;4.656;2022-12-16T05:08:27;9.35;;;2.80;;
69305;SDS011;56427;51.580;4.656;2022-12-16T05:11:11;7.97;;;2.83;;
69305;SDS011;56427;51.580;4.656;2022-12-16T05:13:55;6.75;;;2.50;;
69305;SDS011;56427;51.580;4.656;2022-12-16T05:16:39;13.63;;;3.35;;
69305;SDS011;56427;51.580;4.656;2022-12-16T05:19:23;7.78;;;3.60;;
69305;SDS011;56427;51.580;4.656;2022-12-16T05:22:07;8.57;;;3.03;;
69305;SDS011;56427;51.580;4.656;2022-12-16T05:24:51;9.73;;;3.57;;
69305;SDS011;56427;51.580;4.656;2022-12-16T05:27:35;11.77;;;3.67;;
69305;SDS011;56427;51.580;4.656;2022-12-16T05:30:20;14.38;;;4.00;;
69305;SDS011;56427;51.580;4.656;2022-12-16T05:33:04;13.00;;;3.60;;
69305;SDS011;56427;51.580;4.656;2022-12-16T05:35:48;8.80;;;3.65;;
69305;SDS011;56427;51.580;4.656;2022-12-16T05:38:32;7.67;;;3.60;;
69305;SDS011;56427;51.580;4.656;2022-12-16T05:41:16;9.32;;;4.22;;
69305;SDS011;56427;51.580;4.656;2022-12-16T05:44:00;11.20;;;3.78;;
69305;SDS011;56427;51.580;4.656;2022-12-16T05:46:44;12.10;;;4.10;;
69305;SDS011;56427;51.580;4.656;2022-12-16T05:49:28;11.40;;;3.97;;
69305;SDS011;56427;51.580;4.656;2022-12-16T05:52:12;11.20;;;4.30;;
69305;SDS011;56427;51.580;4.656;2022-12-16T05:54:56;9.52;;;3.75;;
69305;SDS011;56427;51.580;4.656;2022-12-16T05:57:40;11.85;;;4.32;;
69305;SDS011;56427;51.580;4.656;2022-12-16T06:00:24;10.32;;;4.40;;
69305;SDS011;56427;51.580;4.656;2022-12-16T06:03:08;11.50;;;3.80;;
69305;SDS011;56427;51.580;4.656;2022-12-16T06:05:52;10.63;;;4.30;;
69305;SDS011;56427;51.580;4.656;2022-12-16T06:08:36;10.55;;;4.10;;
69305;SDS011;56427;51.580;4.656;2022-12-16T06:11:20;11.30;;;4.20;;
69305;SDS011;56427;51.580;4.656;2022-12-16T06:14:04;10.90;;;4.25;;
69305;SDS011;56427;51.580;4.656;2022-12-16T06:16:48;9.50;;;4.40;;
69305;SDS011;56427;51.580;4.656;2022-12-16T06:19:32;11.73;;;4.57;;
69305;SDS011;56427;51.580;4.656;2022-12-16T06:22:16;8.50;;;4.60;;
69305;SDS011;56427;51.580;4.656;2022-12-16T06:25:00;24.02;;;6.53;;
69305;SDS011;56427;51.580;4.656;2022-12-16T06:27:49;15.52;;;5.63;;
69305;SDS011;56427;51.580;4.656;2022-12-16T06:30:33;14.85;;;5.63;;
69305;SDS011;56427;51.580;4.656;2022-12-16T06:33:17;15.87;;;6.07;;
69305;SDS011;56427;51.580;4.656;2022-12-16T06:36:01;16.45;;;5.75;;
69305;SDS011;56427;51.580;4.656;2022-12-16T06:38:45;14.55;;;5.25;;
69305;SDS011;56427;51.580;4.656;2022-12-16T06:41:29;12.48;;;5.05;;
69305;SDS011;56427;51.580;4.656;2022-12-16T06:44:13;11.63;;;5.22;;
69305;SDS011;56427;51.580;4.656;2022-12-16T06:47:02;10.23;;;5.17;;
69305;SDS011;56427;51.580;4.656;2022-12-16T06:49:45;13.65;;;5.70;;
69305;SDS011;56427;51.580;4.656;2022-12-16T06:52:29;12.60;;;5.25;;
69305;SDS011;56427;51.580;4.656;2022-12-16T06:55:13;10.82;;;5.88;;
69305;SDS011;56427;51.580;4.656;2022-12-16T06:57:57;21.50;;;6.47;;
69305;SDS011;56427;51.580;4.656;2022-12-16T07:00:42;17.47;;;6.70;;
69305;SDS011;56427;51.580;4.656;2022-12-16T07:03:26;13.25;;;5.80;;
69305;SDS011;56427;51.580;4.656;2022-12-16T07:06:09;13.60;;;6.57;;
69305;SDS011;56427;51.580;4.656;2022-12-16T07:08:53;15.57;;;5.93;;
69305;SDS011;56427;51.580;4.656;2022-12-16T07:11:37;11.32;;;6.00;;
69305;SDS011;56427;51.580;4.656;2022-12-16T07:14:21;16.67;;;7.27;;
69305;SDS011;56427;51.580;4.656;2022-12-16T07:17:05;16.52;;;7.30;;
69305;SDS011;56427;51.580;4.656;2022-12-16T07:19:49;17.30;;;6.07;;
69305;SDS011;56427;51.580;4.656;2022-12-16T07:22:33;13.98;;;7.18;;
69305;SDS011;56427;51.580;4.656;2022-12-16T07:25:18;14.48;;;6.68;;
69305;SDS011;56427;51.580;4.656;2022-12-16T07:28:01;14.13;;;7.00;;
69305;SDS011;56427;51.580;4.656;2022-12-16T07:30:45;18.60;;;7.25;;
69305;SDS011;56427;51.580;4.656;2022-12-16T07:33:29;17.98;;;6.97;;
69305;SDS011;56427;51.580;4.656;2022-12-16T07:36:13;13.45;;;6.05;;
69305;SDS011;56427;51.580;4.656;2022-12-16T07:38:57;14.93;;;6.30;;
69305;SDS011;56427;51.580;4.656;2022-12-16T07:41:41;23.13;;;6.67;;
69305;SDS011;56427;51.580;4.656;2022-12-16T07:44:25;13.05;;;6.25;;
69305;SDS011;56427;51.580;4.656;2022-12-16T07:47:09;12.55;;;5.65;;
69305;SDS011;56427;51.580;4.656;2022-12-16T07:49:53;15.52;;;6.43;;
69305;SDS011;56427;51.580;4.656;2022-12-16T07:52:37;22.77;;;6.72;;
69305;SDS011;56427;51.580;4.656;2022-12-16T07:55:21;14.07;;;6.37;;
69305;SDS011;56427;51.580;4.656;2022-12-16T07:58:05;14.45;;;6.68;;
69305;SDS011;56427;51.580;4.656;2022-12-16T08:00:49;15.05;;;6.68;;
69305;SDS011;56427;51.580;4.656;2022-12-16T08:03:33;15.00;;;6.72;;
69305;SDS011;56427;51.580;4.656;2022-12-16T08:06:16;16.52;;;6.68;;
69305;SDS011;56427;51.580;4.656;2022-12-16T08:09:01;15.43;;;6.80;;
69305;SDS011;56427;51.580;4.656;2022-12-16T08:11:44;13.98;;;5.80;;
69305;SDS011;56427;51.580;4.656;2022-12-16T08:14:28;14.70;;;6.88;;
69305;SDS011;56427;51.580;4.656;2022-12-16T08:17:12;12.68;;;6.28;;
69305;SDS011;56427;51.580;4.656;2022-12-16T08:19:56;18.00;;;7.20;;
69305;SDS011;56427;51.580;4.656;2022-12-16T08:22:40;14.13;;;6.97;;
69305;SDS011;56427;51.580;4.656;2022-12-16T08:25:25;18.98;;;7.03;;
69305;SDS011;56427;51.580;4.656;2022-12-16T08:28:09;17.73;;;7.20;;
69305;SDS011;56427;51.580;4.656;2022-12-16T08:30:53;13.82;;;6.85;;
69305;SDS011;56427;51.580;4.656;2022-12-16T08:33:37;21.85;;;7.50;;
69305;SDS011;56427;51.580;4.656;2022-12-16T08:36:21;17.07;;;8.20;;
69305;SDS011;56427;51.580;4.656;2022-12-16T08:39:04;19.77;;;9.05;;
69305;SDS011;56427;51.580;4.656;2022-12-16T08:41:48;18.00;;;8.15;;
69305;SDS011;56427;51.580;4.656;2022-12-16T08:44:32;20.48;;;8.90;;
69305;SDS011;56427;51.580;4.656;2022-12-16T08:47:16;16.25;;;8.23;;
69305;SDS011;56427;51.580;4.656;2022-12-16T08:50:00;16.67;;;8.07;;
69305;SDS011;56427;51.580;4.656;2022-12-16T08:52:44;18.67;;;8.00;;
69305;SDS011;56427;51.580;4.656;2022-12-16T08:55:28;17.70;;;8.52;;
69305;SDS011;56427;51.580;4.656;2022-12-16T08:58:12;15.50;;;7.35;;
69305;SDS011;56427;51.580;4.656;2022-12-16T09:00:57;19.02;;;8.15;;
69305;SDS011;56427;51.580;4.656;2022-12-16T09:03:41;17.97;;;8.00;;
69305;SDS011;56427;51.580;4.656;2022-12-16T09:06:25;13.93;;;7.32;;
69305;SDS011;56427;51.580;4.656;2022-12-16T09:09:09;13.57;;;6.90;;
69305;SDS011;56427;51.580;4.656;2022-12-16T09:11:53;16.10;;;7.30;;
69305;SDS011;56427;51.580;4.656;2022-12-16T09:14:37;15.20;;;7.43;;
69305;SDS011;56427;51.580;4.656;2022-12-16T09:17:21;14.37;;;7.20;;
69305;SDS011;56427;51.580;4.656;2022-12-16T09:20:05;15.02;;;7.50;;
69305;SDS011;56427;51.580;4.656;2022-12-16T09:22:49;14.57;;;6.70;;
69305;SDS011;56427;51.580;4.656;2022-12-16T09:25:33;15.77;;;6.78;;
69305;SDS011;56427;51.580;4.656;2022-12-16T09:28:17;14.63;;;7.35;;
69305;SDS011;56427;51.580;4.656;2022-12-16T09:31:01;14.47;;;7.00;;
69305;SDS011;56427;51.580;4.656;2022-12-16T09:33:45;14.23;;;7.10;;
69305;SDS011;56427;51.580;4.656;2022-12-16T09:36:29;14.23;;;7.18;;
69305;SDS011;56427;51.580;4.656;2022-12-16T09:39:13;11.70;;;7.03;;
69305;SDS011;56427;51.580;4.656;2022-12-16T09:42:02;16.05;;;7.55;;
69305;SDS011;56427;51.580;4.656;2022-12-16T09:45:17;13.35;;;7.13;;
69305;SDS011;56427;51.580;4.656;2022-12-16T09:48:14;12.80;;;7.30;;
69305;SDS011;56427;51.580;4.656;2022-12-16T09:51:07;17.20;;;6.80;;
69305;SDS011;56427;51.580;4.656;2022-12-16T09:53:55;15.23;;;6.90;;
69305;SDS011;56427;51.580;4.656;2022-12-16T09:56:42;13.98;;;6.15;;
69305;SDS011;56427;51.580;4.656;2022-12-16T09:59:29;14.77;;;7.38;;
69305;SDS011;56427;51.580;4.656;2022-12-16T10:02:19;11.07;;;6.38;;
69305;SDS011;56427;51.580;4.656;2022-12-16T10:05:07;12.90;;;6.00;;
69305;SDS011;56427;51.580;4.656;2022-12-16T10:08:08;12.88;;;7.13;;
69305;SDS011;56427;51.580;4.656;2022-12-16T10:11:08;14.27;;;6.40;;
69305;SDS011;56427;51.580;4.656;2022-12-16T10:14:04;16.85;;;7.22;;
69305;SDS011;56427;51.580;4.656;2022-12-16T10:17:09;15.85;;;7.60;;
69305;SDS011;56427;51.580;4.656;2022-12-16T10:20:00;16.35;;;7.53;;
69305;SDS011;56427;51.580;4.656;2022-12-16T10:22:57;19.73;;;7.93;;
69305;SDS011;56427;51.580;4.656;2022-12-16T10:25:55;16.60;;;7.97;;
69305;SDS011;56427;51.580;4.656;2022-12-16T10:28:59;15.93;;;7.70;;
69305;SDS011;56427;51.580;4.656;2022-12-16T10:32:23;14.45;;;6.20;;
69305;SDS011;56427;51.580;4.656;2022-12-16T10:35:32;13.10;;;5.75;;
69305;SDS011;56427;51.580;4.656;2022-12-16T10:41:41;15.65;;;6.13;;
69305;SDS011;56427;51.580;4.656;2022-12-16T10:44:32;14.57;;;5.67;;
69305;SDS011;56427;51.580;4.656;2022-12-16T10:47:20;15.38;;;5.82;;
69305;SDS011;56427;51.580;4.656;2022-12-16T10:50:04;13.95;;;6.57;;
69305;SDS011;56427;51.580;4.656;2022-12-16T10:52:50;12.50;;;5.63;;
69305;SDS011;56427;51.580;4.656;2022-12-16T10:55:51;14.80;;;5.93;;
69305;SDS011;56427;51.580;4.656;2022-12-16T10:58:57;16.53;;;5.40;;
69305;SDS011;56427;51.580;4.656;2022-12-16T11:01:55;11.55;;;5.10;;
69305;SDS011;56427;51.580;4.656;2022-12-16T11:04:44;11.73;;;4.82;;
69305;SDS011;56427;51.580;4.656;2022-12-16T11:10:40;12.55;;;5.25;;
69305;SDS011;56427;51.580;4.656;2022-12-16T11:13:27;11.73;;;5.10;;
69305;SDS011;56427;51.580;4.656;2022-12-16T11:28:09;10.00;;;4.90;;
69305;SDS011;56427;51.580;4.656;2022-12-16T11:30:56;10.15;;;4.90;;
69305;SDS011;56427;51.580;4.656;2022-12-16T11:33:43;10.60;;;4.53;;
69305;SDS011;56427;51.580;4.656;2022-12-16T11:36:27;11.55;;;5.00;;
69305;SDS011;56427;51.580;4.656;2022-12-16T11:39:15;10.77;;;4.63;;
69305;SDS011;56427;51.580;4.656;2022-12-16T11:42:01;8.68;;;4.80;;
69305;SDS011;56427;51.580;4.656;2022-12-16T11:44:49;8.23;;;4.68;;
69305;SDS011;56427;51.580;4.656;2022-12-16T11:50:37;9.30;;;4.53;;
69305;SDS011;56427;51.580;4.656;2022-12-16T11:53:33;10.25;;;4.43;;
69305;SDS011;56427;51.580;4.656;2022-12-16T11:56:45;11.33;;;4.77;;
69305;SDS011;56427;51.580;4.656;2022-12-16T12:02:24;9.85;;;4.07;;
69305;SDS011;56427;51.580;4.656;2022-12-16T12:05:15;9.73;;;3.55;;
69305;SDS011;56427;51.580;4.656;2022-12-16T12:08:08;13.48;;;3.53;;
69305;SDS011;56427;51.580;4.656;2022-12-16T12:11:03;10.40;;;3.43;;
69305;SDS011;56427;51.580;4.656;2022-12-16T12:23:02;10.32;;;3.20;;
69305;SDS011;56427;51.580;4.656;2022-12-16T12:28:58;10.68;;;3.55;;
69305;SDS011;56427;51.580;4.656;2022-12-16T12:47:36;9.38;;;3.95;;
69305;SDS011;56427;51.580;4.656;2022-12-16T12:50:30;7.65;;;3.47;;
69305;SDS011;56427;51.580;4.656;2022-12-16T12:56:40;11.35;;;5.07;;
69305;SDS011;56427;51.580;4.656;2022-12-16T12:59:38;7.72;;;3.83;;
69305;SDS011;56427;51.580;4.656;2022-12-16T13:02:40;7.85;;;3.97;;
69305;SDS011;56427;51.580;4.656;2022-12-16T13:05:44;9.40;;;3.42;;
69305;SDS011;56427;51.580;4.656;2022-12-16T13:11:19;7.70;;;3.55;;
69305;SDS011;56427;51.580;4.656;2022-12-16T13:14:49;7.88;;;3.63;;
69305;SDS011;56427;51.580;4.656;2022-12-16T13:17:14;8.48;;;3.58;;
69305;SDS011;56427;51.580;4.656;2022-12-16T13:19:58;12.10;;;3.72;;
69305;SDS011;56427;51.580;4.656;2022-12-16T13:22:43;7.85;;;3.30;;
69305;SDS011;56427;51.580;4.656;2022-12-16T13:25:34;7.50;;;3.22;;
69305;SDS011;56427;51.580;4.656;2022-12-16T13:28:32;8.95;;;3.47;;
69305;SDS011;56427;51.580;4.656;2022-12-16T13:31:19;8.20;;;3.45;;
69305;SDS011;56427;51.580;4.656;2022-12-16T13:34:19;10.27;;;3.15;;
69305;SDS011;56427;51.580;4.656;2022-12-16T13:37:06;6.63;;;2.60;;
69305;SDS011;56427;51.580;4.656;2022-12-16T13:40:15;7.53;;;3.37;;
69305;SDS011;56427;51.580;4.656;2022-12-16T13:43:02;7.43;;;3.40;;
69305;SDS011;56427;51.580;4.656;2022-12-16T13:46:11;10.13;;;3.20;;
69305;SDS011;56427;51.580;4.656;2022-12-16T13:48:56;7.57;;;3.50;;
69305;SDS011;56427;51.580;4.656;2022-12-16T13:52:18;7.07;;;2.67;;
69305;SDS011;56427;51.580;4.656;2022-12-16T13:55:29;6.13;;;2.80;;
69305;SDS011;56427;51.580;4.656;2022-12-16T13:58:39;6.72;;;3.05;;
69305;SDS011;56427;51.580;4.656;2022-12-16T14:01:36;5.68;;;2.90;;
69305;SDS011;56427;51.580;4.656;2022-12-16T14:04:27;7.97;;;3.05;;
69305;SDS011;56427;51.580;4.656;2022-12-16T14:07:16;10.27;;;3.42;;
69305;SDS011;56427;51.580;4.656;2022-12-16T14:10:01;6.43;;;3.17;;
69305;SDS011;56427;51.580;4.656;2022-12-16T14:12:47;8.65;;;3.47;;
69305;SDS011;56427;51.580;4.656;2022-12-16T14:18:27;6.97;;;3.17;;
69305;SDS011;56427;51.580;4.656;2022-12-16T14:21:21;6.47;;;2.83;;
69305;SDS011;56427;51.580;4.656;2022-12-16T14:24:32;8.13;;;3.00;;
69305;SDS011;56427;51.580;4.656;2022-12-16T14:27:18;6.25;;;3.17;;
69305;SDS011;56427;51.580;4.656;2022-12-16T14:36:22;6.45;;;3.25;;
69305;SDS011;56427;51.580;4.656;2022-12-16T14:39:30;7.90;;;3.30;;
69305;SDS011;56427;51.580;4.656;2022-12-16T14:42:21;6.85;;;3.42;;
69305;SDS011;56427;51.580;4.656;2022-12-16T14:45:20;8.60;;;3.63;;
69305;SDS011;56427;51.580;4.656;2022-12-16T14:48:12;11.02;;;3.88;;
69305;SDS011;56427;51.580;4.656;2022-12-16T14:51:13;6.60;;;3.38;;
69305;SDS011;56427;51.580;4.656;2022-12-16T14:54:08;7.20;;;3.80;;
69305;SDS011;56427;51.580;4.656;2022-12-16T14:57:02;10.07;;;4.30;;
69305;SDS011;56427;51.580;4.656;2022-12-16T14:59:46;10.98;;;4.68;;
69305;SDS011;56427;51.580;4.656;2022-12-16T15:02:36;13.85;;;5.88;;
69305;SDS011;56427;51.580;4.656;2022-12-16T15:05:28;9.05;;;5.18;;
69305;SDS011;56427;51.580;4.656;2022-12-16T15:08:15;7.93;;;4.70;;
69305;SDS011;56427;51.580;4.656;2022-12-16T15:11:01;8.38;;;4.65;;
69305;SDS011;56427;51.580;4.656;2022-12-16T15:13:48;10.30;;;4.60;;
69305;SDS011;56427;51.580;4.656;2022-12-16T15:16:40;9.05;;;3.85;;
69305;SDS011;56427;51.580;4.656;2022-12-16T15:19:25;7.78;;;3.83;;
69305;SDS011;56427;51.580;4.656;2022-12-16T15:22:12;12.60;;;5.20;;
69305;SDS011;56427;51.580;4.656;2022-12-16T15:24:57;13.75;;;5.65;;
69305;SDS011;56427;51.580;4.656;2022-12-16T15:27:41;13.68;;;5.03;;
69305;SDS011;56427;51.580;4.656;2022-12-16T15:30:36;11.82;;;5.00;;
69305;SDS011;56427;51.580;4.656;2022-12-16T15:33:25;11.50;;;4.53;;
69305;SDS011;56427;51.580;4.656;2022-12-16T15:42:04;11.98;;;5.10;;
69305;SDS011;56427;51.580;4.656;2022-12-16T15:44:59;10.30;;;5.28;;
69305;SDS011;56427;51.580;4.656;2022-12-16T15:47:43;9.25;;;4.70;;
69305;SDS011;56427;51.580;4.656;2022-12-16T15:50:32;9.33;;;4.90;;
69305;SDS011;56427;51.580;4.656;2022-12-16T15:56:15;12.15;;;5.32;;
69305;SDS011;56427;51.580;4.656;2022-12-16T16:02:08;13.38;;;5.65;;
69305;SDS011;56427;51.580;4.656;2022-12-16T16:04:59;12.53;;;6.50;;
69305;SDS011;56427;51.580;4.656;2022-12-16T16:07:44;12.70;;;6.40;;
69305;SDS011;56427;51.580;4.656;2022-12-16T16:10:28;12.73;;;6.38;;
69305;SDS011;56427;51.580;4.656;2022-12-16T16:13:12;10.27;;;6.00;;
69305;SDS011;56427;51.580;4.656;2022-12-16T16:15:56;11.00;;;6.43;;
69305;SDS011;56427;51.580;4.656;2022-12-16T16:18:40;11.17;;;5.87;;
69305;SDS011;56427;51.580;4.656;2022-12-16T16:21:25;13.65;;;6.65;;
69305;SDS011;56427;51.580;4.656;2022-12-16T16:24:17;12.93;;;5.97;;
69305;SDS011;56427;51.580;4.656;2022-12-16T16:27:01;13.13;;;6.10;;
69305;SDS011;56427;51.580;4.656;2022-12-16T16:29:49;11.75;;;6.15;;
69305;SDS011;56427;51.580;4.656;2022-12-16T16:32:33;12.80;;;6.87;;
69305;SDS011;56427;51.580;4.656;2022-12-16T16:35:17;11.95;;;7.40;;
69305;SDS011;56427;51.580;4.656;2022-12-16T16:38:01;14.43;;;6.35;;
69305;SDS011;56427;51.580;4.656;2022-12-16T16:40:44;13.15;;;5.97;;
69305;SDS011;56427;51.580;4.656;2022-12-16T16:43:29;11.98;;;6.90;;
69305;SDS011;56427;51.580;4.656;2022-12-16T16:49:09;15.95;;;7.43;;
69305;SDS011;56427;51.580;4.656;2022-12-16T16:51:55;12.25;;;7.47;;
69305;SDS011;56427;51.580;4.656;2022-12-16T16:54:39;15.75;;;7.95;;
69305;SDS011;56427;51.580;4.656;2022-12-16T16:57:23;12.82;;;7.50;;
69305;SDS011;56427;51.580;4.656;2022-12-16T17:00:09;13.07;;;8.30;;
69305;SDS011;56427;51.580;4.656;2022-12-16T17:02:54;14.68;;;7.57;;
69305;SDS011;56427;51.580;4.656;2022-12-16T17:05:37;20.02;;;7.68;;
69305;SDS011;56427;51.580;4.656;2022-12-16T17:08:21;21.00;;;9.25;;
69305;SDS011;56427;51.580;4.656;2022-12-16T17:11:20;16.38;;;7.50;;
69305;SDS011;56427;51.580;4.656;2022-12-16T17:14:05;15.43;;;8.23;;
69305;SDS011;56427;51.580;4.656;2022-12-16T17:16:52;17.60;;;7.95;;
69305;SDS011;56427;51.580;4.656;2022-12-16T17:19:36;19.35;;;10.02;;
69305;SDS011;56427;51.580;4.656;2022-12-16T17:22:20;12.77;;;7.68;;
69305;SDS011;56427;51.580;4.656;2022-12-16T17:25:04;19.35;;;8.60;;
69305;SDS011;56427;51.580;4.656;2022-12-16T17:27:49;16.87;;;9.30;;
69305;SDS011;56427;51.580;4.656;2022-12-16T17:30:36;19.25;;;8.02;;
69305;SDS011;56427;51.580;4.656;2022-12-16T17:33:20;15.68;;;8.25;;
69305;SDS011;56427;51.580;4.656;2022-12-16T17:36:04;15.35;;;7.90;;
69305;SDS011;56427;51.580;4.656;2022-12-16T17:38:48;13.02;;;6.82;;
69305;SDS011;56427;51.580;4.656;2022-12-16T17:41:32;14.33;;;7.67;;
69305;SDS011;56427;51.580;4.656;2022-12-16T17:44:16;14.75;;;7.22;;
69305;SDS011;56427;51.580;4.656;2022-12-16T17:47:00;22.75;;;9.27;;
69305;SDS011;56427;51.580;4.656;2022-12-16T17:49:45;19.42;;;9.00;;
69305;SDS011;56427;51.580;4.656;2022-12-16T17:52:29;28.52;;;11.27;;
69305;SDS011;56427;51.580;4.656;2022-12-16T17:55:14;23.70;;;11.47;;
69305;SDS011;56427;51.580;4.656;2022-12-16T17:57:57;21.85;;;10.82;;
69305;SDS011;56427;51.580;4.656;2022-12-16T18:00:41;18.27;;;9.85;;
69305;SDS011;56427;51.580;4.656;2022-12-16T18:03:25;23.45;;;12.20;;
69305;SDS011;56427;51.580;4.656;2022-12-16T18:06:09;21.98;;;11.80;;
69305;SDS011;56427;51.580;4.656;2022-12-16T18:08:53;27.00;;;12.37;;